Time;durP1;ratioP1;P1;durP2;ratioP2;P2;SDS_P1;SDS_P2;PMS_P1;PMS_P2;Temp;Humidity;BMP_temperature;BMP_pressure;BME280_temperature;BME280_humidity;BME280_pressure;Samples;Min_cycle;Max_cycle;Signal;HPM_P1;HPM_P2
2022/01/17 00:00:16;;;;;;;7.27;3.83;;;2.10;99.90;;;;;;5110565;28;20199;-62
2022/01/17 00:03:01;;;;;;;11.07;5.03;;;2.10;99.90;;;;;;5107383;28;20344;-56
2022/01/17 00:05:46;;;;;;;8.57;4.53;;;2.10;99.90;;;;;;5132521;27;20249;-61
2022/01/17 00:08:31;;;;;;;8.67;4.83;;;2.10;99.90;;;;;;5139083;27;20202;-50
2022/01/17 00:11:16;;;;;;;6.93;4.73;;;2.10;99.90;;;;;;5140758;27;20191;-61
2022/01/17 00:14:01;;;;;;;11.37;5.03;;;2.10;99.90;;;;;;5136769;27;20222;-57
2022/01/17 00:16:52;;;;;;;7.37;4.70;;;2.10;99.90;;;;;;5130543;27;20216;-61
2022/01/17 00:19:47;;;;;;;7.37;4.40;;;2.10;99.90;;;;;;5138819;27;20272;-60
2022/01/17 00:22:31;;;;;;;4.67;3.37;;;2.10;99.90;;;;;;5139678;27;20188;-54
2022/01/17 00:25:15;;;;;;;3.50;3.20;;;2.10;99.90;;;;;;5137768;27;20206;-58
2022/01/17 00:28:00;;;;;;;5.83;3.83;;;2.10;99.90;;;;;;5137061;27;20183;-60
2022/01/17 00:30:44;;;;;;;6.77;4.67;;;2.10;99.90;;;;;;5138655;27;20219;-53
2022/01/17 00:33:29;;;;;;;6.40;3.93;;;2.10;99.90;;;;;;5135999;27;20187;-62
2022/01/17 00:36:13;;;;;;;5.60;4.43;;;2.10;99.90;;;;;;5139862;27;20249;-56
2022/01/17 00:38:57;;;;;;;8.73;4.93;;;2.10;99.90;;;;;;5134537;27;20206;-52
2022/01/17 00:41:42;;;;;;;4.80;3.77;;;2.10;99.90;;;;;;5128009;27;20231;-60
2022/01/17 00:44:27;;;;;;;3.47;2.90;;;2.10;99.90;;;;;;5131173;27;20272;-51
2022/01/17 00:47:11;;;;;;;7.77;4.80;;;2.10;99.90;;;;;;5143932;27;20190;-60
2022/01/17 00:49:56;;;;;;;5.17;4.07;;;2.10;99.90;;;;;;5148887;27;20252;-58
2022/01/17 00:52:40;;;;;;;5.87;4.57;;;2.10;99.90;;;;;;5150551;27;20209;-58
2022/01/17 00:55:25;;;;;;;4.40;3.73;;;2.10;99.90;;;;;;5147762;27;20186;-60
2022/01/17 00:58:09;;;;;;;3.43;2.17;;;2.10;99.90;;;;;;5149387;27;20194;-54
2022/01/17 01:00:53;;;;;;;3.70;3.33;;;2.20;99.90;;;;;;5149096;27;20186;-59
2022/01/17 01:03:38;;;;;;;9.03;5.33;;;2.20;99.90;;;;;;5146543;27;20190;-59
2022/01/17 01:06:23;;;;;;;4.97;4.00;;;2.20;99.90;;;;;;5150274;27;20195;-60
2022/01/17 01:09:09;;;;;;;5.90;3.90;;;2.20;99.90;;;;;;5149242;27;20256;-60
2022/01/17 01:11:53;;;;;;;4.57;3.20;;;2.20;99.90;;;;;;5148034;27;20222;-59
2022/01/17 01:14:41;;;;;;;5.57;4.10;;;2.20;99.90;;;;;;5150281;27;20276;-54
2022/01/17 01:17:48;;;;;;;7.60;3.10;;;2.20;99.90;;;;;;5147532;27;20272;-56
2022/01/17 01:29:28;;;;;;;2.40;2.20;;;2.30;99.90;;;;;;5147599;27;20252;-57
2022/01/17 01:32:17;;;;;;;3.47;2.97;;;2.30;99.90;;;;;;5149195;27;20199;-59
2022/01/17 01:35:03;;;;;;;5.93;3.63;;;2.30;99.90;;;;;;5146862;27;20230;-57
2022/01/17 01:37:48;;;;;;;3.50;2.53;;;2.30;99.90;;;;;;5146706;27;20214;-55
2022/01/17 01:40:34;;;;;;;3.13;2.63;;;2.30;99.90;;;;;;5149200;27;20206;-58
2022/01/17 01:43:18;;;;;;;3.20;2.73;;;2.30;99.90;;;;;;5146432;27;20195;-58
2022/01/17 01:46:03;;;;;;;3.97;2.50;;;2.40;99.90;;;;;;5147548;27;20199;-59
2022/01/17 01:48:47;;;;;;;3.20;2.70;;;2.40;99.90;;;;;;5148942;27;20307;-55
2022/01/17 01:51:32;;;;;;;4.17;3.10;;;2.40;99.90;;;;;;5145571;27;20295;-59
2022/01/17 01:54:18;;;;;;;3.00;2.70;;;2.40;99.90;;;;;;5148673;27;20205;-58
2022/01/17 01:57:02;;;;;;;3.77;3.13;;;2.40;99.90;;;;;;5147970;27;20222;-60
2022/01/17 01:59:47;;;;;;;6.00;3.67;;;2.50;99.90;;;;;;5145271;27;20191;-53
2022/01/17 02:02:31;;;;;;;3.13;2.87;;;2.50;99.90;;;;;;5148470;27;20191;-60
2022/01/17 02:05:15;;;;;;;2.93;2.63;;;2.50;99.90;;;;;;5125924;27;20253;-57
2022/01/17 02:08:00;;;;;;;3.87;2.90;;;2.50;99.90;;;;;;5106780;28;20246;-57
2022/01/17 02:10:44;;;;;;;3.67;3.03;;;2.50;99.90;;;;;;5107198;28;20249;-54
2022/01/17 02:13:29;;;;;;;6.07;4.03;;;2.50;99.90;;;;;;5105279;28;20188;-59
2022/01/17 02:16:15;;;;;;;4.67;3.67;;;2.50;99.90;;;;;;5106660;28;20243;-57
2022/01/17 02:19:01;;;;;;;3.97;2.47;;;2.50;99.90;;;;;;5107417;28;20200;-58
2022/01/17 02:21:47;;;;;;;3.80;2.90;;;2.50;99.90;;;;;;5104391;28;20227;-57
2022/01/17 02:24:33;;;;;;;3.50;3.17;;;2.50;99.90;;;;;;5106822;28;20186;-56
2022/01/17 02:27:17;;;;;;;6.73;3.37;;;2.50;99.90;;;;;;5106392;28;20210;-58
2022/01/17 02:30:01;;;;;;;6.53;4.00;;;2.40;99.90;;;;;;5104568;28;20191;-60
2022/01/17 02:32:46;;;;;;;4.10;2.77;;;2.40;99.90;;;;;;5107265;28;20200;-56
2022/01/17 02:35:30;;;;;;;4.30;2.70;;;2.40;99.90;;;;;;5105516;28;20255;-59
2022/01/17 02:38:14;;;;;;;3.77;2.87;;;2.40;99.90;;;;;;5105878;28;20208;-56
2022/01/17 02:40:59;;;;;;;6.73;3.13;;;2.40;99.90;;;;;;5107516;28;20192;-53
2022/01/17 02:43:46;;;;;;;6.07;3.60;;;2.40;99.90;;;;;;5104050;28;20192;-58
2022/01/17 02:46:30;;;;;;;6.67;3.43;;;2.50;99.90;;;;;;5106360;28;20246;-58
2022/01/17 02:49:16;;;;;;;5.00;4.03;;;2.50;99.90;;;;;;5106679;28;20199;-58
2022/01/17 02:52:02;;;;;;;4.27;3.33;;;2.50;99.90;;;;;;5104081;28;20234;-60
2022/01/17 02:54:47;;;;;;;2.63;1.83;;;2.50;99.90;;;;;;5106794;28;20199;-60
2022/01/17 02:57:32;;;;;;;3.63;2.63;;;2.50;99.90;;;;;;5106068;28;20231;-57
2022/01/17 03:00:17;;;;;;;1.97;1.70;;;2.50;99.90;;;;;;5104702;28;20239;-59
2022/01/17 03:03:01;;;;;;;4.60;3.40;;;2.50;99.90;;;;;;5107799;28;20227;-55
2022/01/17 03:05:48;;;;;;;4.87;2.70;;;2.50;99.90;;;;;;5104673;28;20280;-57
2022/01/17 03:08:34;;;;;;;3.67;3.23;;;2.50;99.90;;;;;;5105145;28;20191;-56
2022/01/17 03:11:22;;;;;;;3.97;2.83;;;2.50;99.90;;;;;;5106946;28;20260;-57
2022/01/17 03:14:06;;;;;;;4.10;3.13;;;2.50;99.90;;;;;;5104523;28;20196;-57
2022/01/17 03:16:51;;;;;;;3.20;2.90;;;2.50;99.90;;;;;;5105596;28;20285;-57
2022/01/17 03:19:35;;;;;;;2.63;2.43;;;2.50;99.90;;;;;;5106150;28;20227;-59
2022/01/17 03:22:21;;;;;;;2.07;1.90;;;2.50;99.90;;;;;;5103132;28;20779;-60
2022/01/17 03:25:05;;;;;;;5.17;3.17;;;2.50;99.90;;;;;;5106486;28;20207;-56
2022/01/17 03:27:51;;;;;;;4.00;2.57;;;2.50;99.90;;;;;;5105770;28;20253;-58
2022/01/17 03:30:36;;;;;;;3.37;2.57;;;2.50;99.90;;;;;;5104118;28;20238;-55
2022/01/17 03:33:20;;;;;;;2.40;2.10;;;2.50;99.90;;;;;;5107741;28;20185;-55
2022/01/17 03:36:05;;;;;;;4.33;3.77;;;2.60;99.90;;;;;;5104437;28;20244;-59
2022/01/17 03:38:50;;;;;;;4.37;3.47;;;2.50;99.90;;;;;;5104568;28;20240;-58
2022/01/17 03:41:36;;;;;;;2.60;2.47;;;2.50;99.90;;;;;;5106975;28;20238;-59
2022/01/17 03:44:20;;;;;;;4.83;3.33;;;2.50;99.90;;;;;;5104025;28;20212;-53
2022/01/17 03:47:05;;;;;;;2.50;2.37;;;2.50;99.90;;;;;;5105577;28;20192;-54
2022/01/17 03:49:49;;;;;;;4.10;2.50;;;2.50;99.90;;;;;;5106261;28;20200;-54
2022/01/17 03:52:34;;;;;;;3.27;2.83;;;2.60;99.90;;;;;;5102917;28;20224;-52
2022/01/17 03:55:20;;;;;;;3.27;2.97;;;2.50;99.90;;;;;;5107160;28;20281;-50
2022/01/17 03:58:06;;;;;;;1.93;1.83;;;2.60;99.90;;;;;;5109359;28;20273;-57
2022/01/17 04:00:52;;;;;;;3.43;2.97;;;2.50;99.90;;;;;;5107149;28;20249;-59
2022/01/17 04:03:38;;;;;;;3.40;2.93;;;2.60;99.90;;;;;;5110541;28;20276;-60
2022/01/17 04:06:24;;;;;;;6.37;2.93;;;2.50;99.90;;;;;;5107720;28;20297;-60
2022/01/17 04:09:09;;;;;;;4.07;3.77;;;2.50;99.90;;;;;;5107859;28;20199;-55
2022/01/17 04:11:53;;;;;;;3.47;2.67;;;2.50;99.90;;;;;;5110470;28;20204;-61
2022/01/17 04:14:38;;;;;;;3.70;2.60;;;2.50;99.90;;;;;;5107099;28;20196;-59
2022/01/17 04:17:27;;;;;;;3.60;2.63;;;2.50;99.90;;;;;;5108752;28;20255;-57
2022/01/17 04:20:24;;;;;;;5.60;3.33;;;2.50;99.90;;;;;;5109495;28;20234;-57
2022/01/17 04:23:11;;;;;;;4.47;3.03;;;2.50;99.90;;;;;;5106821;28;20189;-58
2022/01/17 04:25:55;;;;;;;2.93;1.80;;;2.50;99.90;;;;;;5108952;28;20218;-60
2022/01/17 04:28:41;;;;;;;3.40;2.83;;;2.50;99.90;;;;;;5109526;28;20196;-61
2022/01/17 04:31:25;;;;;;;5.67;2.90;;;2.60;99.90;;;;;;5106290;28;20237;-59
2022/01/17 04:34:10;;;;;;;4.37;3.10;;;2.60;99.90;;;;;;5109058;28;20266;-58
2022/01/17 04:36:54;;;;;;;5.33;3.57;;;2.60;99.90;;;;;;5107269;28;20224;-57
2022/01/17 04:39:39;;;;;;;5.03;2.67;;;2.60;99.90;;;;;;5107073;28;20192;-55
2022/01/17 04:42:28;;;;;;;6.73;3.73;;;2.60;99.90;;;;;;5109441;28;20280;-57
2022/01/17 04:45:15;;;;;;;4.10;3.33;;;2.60;99.90;;;;;;5107245;28;20216;-60
2022/01/17 04:48:00;;;;;;;4.07;3.13;;;2.60;99.90;;;;;;5107470;28;20228;-57
2022/01/17 04:50:45;;;;;;;5.07;3.90;;;2.60;99.90;;;;;;5109543;28;20227;-59
2022/01/17 04:53:31;;;;;;;2.43;2.20;;;2.60;99.90;;;;;;5106059;28;20195;-61
2022/01/17 04:56:15;;;;;;;5.53;3.20;;;2.70;99.90;;;;;;5108657;28;20269;-57
2022/01/17 04:59:00;;;;;;;2.33;2.13;;;2.70;99.90;;;;;;5108791;28;20192;-60
2022/01/17 05:01:46;;;;;;;5.93;3.43;;;2.70;99.90;;;;;;5106139;28;20207;-57
2022/01/17 05:04:30;;;;;;;4.37;2.77;;;2.70;99.90;;;;;;5109295;28;20196;-58
2022/01/17 05:07:14;;;;;;;2.93;2.23;;;2.70;99.90;;;;;;5106659;28;20210;-60
2022/01/17 05:10:00;;;;;;;3.97;2.70;;;2.70;99.90;;;;;;5106527;28;20254;-58
2022/01/17 05:12:45;;;;;;;3.70;2.47;;;2.60;99.90;;;;;;5109343;28;20185;-61
2022/01/17 05:15:36;;;;;;;6.73;3.60;;;2.60;99.90;;;;;;5106179;28;20212;-61
2022/01/17 05:19:47;;;;;;;7.33;4.33;;;2.60;99.90;;;;;;5106799;28;20308;-61
2022/01/17 05:21:27;;;;;;;3.30;2.73;;;2.70;99.90;;;;;;5110316;28;20270;-60
2022/01/17 05:24:12;;;;;;;2.87;2.67;;;2.70;99.90;;;;;;5105838;28;20257;-60
2022/01/17 05:26:57;;;;;;;5.77;4.17;;;2.70;99.90;;;;;;5107046;28;20204;-59
2022/01/17 05:29:41;;;;;;;7.13;3.23;;;2.70;99.90;;;;;;5123895;27;20277;-61
2022/01/17 05:32:25;;;;;;;2.73;2.10;;;2.70;99.90;;;;;;5125437;27;20236;-59
2022/01/17 05:35:11;;;;;;;3.70;2.93;;;2.70;99.90;;;;;;5128682;27;20294;-59
2022/01/17 05:37:56;;;;;;;2.27;2.13;;;2.70;99.90;;;;;;5127604;27;20223;-62
2022/01/17 05:40:40;;;;;;;10.40;3.57;;;2.70;99.90;;;;;;5125630;27;20209;-60
2022/01/17 05:43:25;;;;;;;4.90;3.27;;;2.70;99.90;;;;;;5128665;27;20195;-55
2022/01/17 05:46:10;;;;;;;5.97;3.93;;;2.70;99.90;;;;;;5128845;27;20248;-59
2022/01/17 05:48:55;;;;;;;4.97;3.87;;;2.80;99.90;;;;;;5137160;27;20244;-58
2022/01/17 05:51:39;;;;;;;9.07;3.53;;;2.70;99.90;;;;;;5149499;27;20271;-59
2022/01/17 05:54:23;;;;;;;4.13;3.63;;;2.70;99.90;;;;;;5143126;27;20241;-60
2022/01/17 05:57:07;;;;;;;8.17;5.47;;;2.80;99.90;;;;;;5123243;27;20284;-56
2022/01/17 05:59:52;;;;;;;4.43;3.97;;;2.80;99.90;;;;;;5120885;27;20200;-61
2022/01/17 06:02:37;;;;;;;7.00;4.17;;;2.90;99.90;;;;;;5121530;27;20184;-57
2022/01/17 06:05:21;;;;;;;6.50;3.50;;;2.90;99.90;;;;;;5127552;27;20237;-56
2022/01/17 06:08:05;;;;;;;6.80;4.37;;;2.90;99.90;;;;;;5124867;27;20268;-60
2022/01/17 06:10:49;;;;;;;7.53;3.57;;;2.90;99.90;;;;;;5126812;27;20226;-59
2022/01/17 06:13:34;;;;;;;6.00;2.97;;;2.90;99.90;;;;;;5135061;27;20191;-53
2022/01/17 06:16:20;;;;;;;4.30;3.33;;;2.90;99.90;;;;;;5137284;27;20223;-57
2022/01/17 06:19:04;;;;;;;6.40;4.03;;;2.90;99.90;;;;;;5134245;27;20191;-58
2022/01/17 06:21:48;;;;;;;5.43;3.53;;;2.90;99.90;;;;;;5134733;27;20198;-49
2022/01/17 06:24:33;;;;;;;3.37;3.07;;;3.00;99.90;;;;;;5125147;27;20286;-58
2022/01/17 06:27:18;;;;;;;3.17;2.80;;;3.00;99.90;;;;;;5125454;27;20199;-58
2022/01/17 06:30:05;;;;;;;3.23;3.03;;;3.00;99.90;;;;;;5126002;27;20192;-60
2022/01/17 06:32:50;;;;;;;8.00;4.67;;;3.00;99.90;;;;;;5121556;27;20191;-58
2022/01/17 06:35:37;;;;;;;5.90;4.30;;;3.00;99.90;;;;;;5125222;27;20291;-58
2022/01/17 06:38:22;;;;;;;5.83;3.83;;;3.10;99.90;;;;;;5124911;27;20312;-61
2022/01/17 06:41:07;;;;;;;6.40;3.90;;;3.10;99.90;;;;;;5121649;27;20210;-61
2022/01/17 06:43:53;;;;;;;8.23;3.30;;;3.00;99.90;;;;;;5124757;27;20267;-58
2022/01/17 06:46:38;;;;;;;6.07;3.47;;;3.00;99.90;;;;;;5123547;27;20249;-60
2022/01/17 06:49:22;;;;;;;8.03;3.90;;;3.00;99.90;;;;;;5124545;27;20282;-61
2022/01/17 06:52:07;;;;;;;3.80;2.97;;;3.00;99.90;;;;;;5126265;28;20640;-60
2022/01/17 06:54:52;;;;;;;6.27;4.53;;;3.10;99.90;;;;;;5121983;28;20241;-61
2022/01/17 06:57:37;;;;;;;6.27;4.00;;;3.10;99.90;;;;;;5115951;27;20251;-61
2022/01/17 07:00:22;;;;;;;4.83;3.77;;;3.10;99.90;;;;;;5118708;27;20204;-61
2022/01/17 07:03:07;;;;;;;4.30;2.93;;;3.10;99.90;;;;;;5125601;28;20241;-60
2022/01/17 07:05:51;;;;;;;4.63;4.10;;;3.10;99.90;;;;;;5126469;28;20186;-59
2022/01/17 07:08:36;;;;;;;8.27;4.33;;;3.10;99.90;;;;;;5124399;28;20261;-61
2022/01/17 07:11:21;;;;;;;8.20;4.53;;;3.10;99.90;;;;;;5122461;28;20188;-55
2022/01/17 07:14:10;;;;;;;4.17;3.37;;;3.10;99.90;;;;;;5124205;28;20238;-56
2022/01/17 07:16:55;;;;;;;7.20;4.17;;;3.10;99.90;;;;;;5119220;28;20223;-56
2022/01/17 07:19:39;;;;;;;5.77;4.13;;;3.10;99.90;;;;;;5105368;28;20238;-60
2022/01/17 07:22:24;;;;;;;10.77;5.77;;;3.20;99.90;;;;;;5107768;28;20195;-62
2022/01/17 07:25:08;;;;;;;5.93;3.50;;;3.10;99.90;;;;;;5120444;28;20211;-56
2022/01/17 07:27:55;;;;;;;8.90;4.03;;;3.10;99.90;;;;;;5122384;28;20237;-57
2022/01/17 07:30:41;;;;;;;5.97;4.00;;;3.10;99.90;;;;;;5126712;27;20215;-59
2022/01/17 07:33:27;;;;;;;3.10;2.67;;;3.20;99.90;;;;;;5130762;27;20219;-59
2022/01/17 07:36:17;;;;;;;4.23;3.73;;;3.20;99.90;;;;;;5137472;27;20227;-60
2022/01/17 07:39:03;;;;;;;5.67;4.07;;;3.10;99.90;;;;;;5136796;27;20195;-56
2022/01/17 07:41:47;;;;;;;10.70;5.10;;;3.10;99.90;;;;;;5135718;27;20267;-55
2022/01/17 07:44:33;;;;;;;7.50;4.97;;;3.10;99.90;;;;;;5140449;27;20207;-56
2022/01/17 07:47:24;;;;;;;7.00;3.77;;;3.10;99.90;;;;;;5130573;27;20253;-58
2022/01/17 07:50:17;;;;;;;7.50;4.80;;;3.10;99.90;;;;;;5137538;27;20233;-60
2022/01/17 07:53:02;;;;;;;9.00;5.70;;;3.10;99.90;;;;;;5136516;27;20205;-53
2022/01/17 07:55:46;;;;;;;7.23;3.57;;;3.10;99.90;;;;;;5133979;27;20179;-61
2022/01/17 07:58:31;;;;;;;3.23;2.60;;;3.10;99.90;;;;;;5135829;27;20211;-56
2022/01/17 08:01:16;;;;;;;6.67;3.67;;;3.10;99.90;;;;;;5137648;27;20265;-57
2022/01/17 08:04:00;;;;;;;5.87;4.37;;;3.10;99.90;;;;;;5133413;27;20272;-54
2022/01/17 08:06:46;;;;;;;4.67;3.80;;;3.10;99.90;;;;;;5132969;27;20187;-54
2022/01/17 08:09:33;;;;;;;9.83;5.47;;;3.10;99.90;;;;;;5139447;27;20195;-59
2022/01/17 08:12:18;;;;;;;4.27;3.53;;;3.10;99.90;;;;;;5131856;27;20280;-53
2022/01/17 08:15:04;;;;;;;6.40;3.70;;;3.10;99.90;;;;;;5128426;27;20267;-56
2022/01/17 08:17:49;;;;;;;2.80;2.60;;;3.10;99.90;;;;;;5124284;27;20219;-58
2022/01/17 08:20:34;;;;;;;6.17;3.20;;;3.10;99.90;;;;;;5124673;27;20303;-58
2022/01/17 08:23:19;;;;;;;6.27;4.03;;;3.10;99.90;;;;;;5129699;27;20249;-56
2022/01/17 08:26:04;;;;;;;10.90;4.97;;;3.10;99.90;;;;;;5127093;27;20188;-61
2022/01/17 08:28:50;;;;;;;3.73;2.80;;;3.10;99.90;;;;;;5128422;27;20222;-53
2022/01/17 08:31:34;;;;;;;6.20;4.37;;;3.10;99.90;;;;;;5129551;27;20192;-60
2022/01/17 08:34:19;;;;;;;7.87;3.40;;;3.10;99.90;;;;;;5126523;27;20231;-61
2022/01/17 08:37:04;;;;;;;13.87;4.80;;;3.10;99.90;;;;;;5129484;27;20272;-56
2022/01/17 08:39:49;;;;;;;7.00;3.97;;;3.10;99.90;;;;;;5129125;27;20217;-60
2022/01/17 08:42:36;;;;;;;8.23;3.10;;;3.20;99.90;;;;;;5126371;27;20206;-62
2022/01/17 08:45:23;;;;;;;8.90;3.83;;;3.20;99.90;;;;;;5130434;27;20190;-61
2022/01/17 08:48:08;;;;;;;8.03;4.77;;;3.20;99.90;;;;;;5128613;27;20222;-61
2022/01/17 08:50:52;;;;;;;5.60;3.50;;;3.20;99.90;;;;;;5127212;27;20182;-54
2022/01/17 08:53:39;;;;;;;6.07;2.93;;;3.20;99.90;;;;;;5129829;27;20196;-55
2022/01/17 08:56:27;;;;;;;5.83;3.67;;;3.20;99.90;;;;;;5126646;27;20284;-58
2022/01/17 08:59:13;;;;;;;2.77;2.50;;;3.30;99.90;;;;;;5127850;27;20196;-61
2022/01/17 09:01:58;;;;;;;3.37;2.83;;;3.40;99.90;;;;;;5129163;27;20191;-59
2022/01/17 09:04:43;;;;;;;4.53;3.33;;;3.40;99.90;;;;;;5126380;27;20207;-59
2022/01/17 09:07:27;;;;;;;8.67;3.13;;;3.50;99.90;;;;;;5128470;27;20237;-58
2022/01/17 09:10:11;;;;;;;4.80;3.10;;;3.60;99.90;;;;;;5128759;27;20196;-62
2022/01/17 09:12:57;;;;;;;5.73;3.30;;;3.60;99.90;;;;;;5126185;27;20324;-60
2022/01/17 09:15:41;;;;;;;4.37;3.47;;;3.70;99.90;;;;;;5129251;27;20256;-54
2022/01/17 09:18:25;;;;;;;4.83;3.27;;;3.70;99.90;;;;;;5126772;27;20265;-61
2022/01/17 09:21:10;;;;;;;3.40;2.57;;;3.60;99.90;;;;;;5126875;27;20184;-57
2022/01/17 09:23:58;;;;;;;3.23;2.30;;;3.60;99.90;;;;;;5129098;27;20199;-58
2022/01/17 09:26:45;;;;;;;4.80;3.13;;;3.60;99.90;;;;;;5126086;27;20195;-57
2022/01/17 09:29:29;;;;;;;5.67;3.27;;;3.60;99.90;;;;;;5127562;27;20199;-57
2022/01/17 09:32:15;;;;;;;2.47;1.80;;;3.70;99.90;;;;;;5128776;27;20231;-56
2022/01/17 09:34:59;;;;;;;4.73;3.37;;;3.70;99.90;;;;;;5125204;27;20258;-56
2022/01/17 09:37:44;;;;;;;6.87;3.63;;;3.60;99.90;;;;;;5128045;27;20227;-57
2022/01/17 09:40:28;;;;;;;3.80;2.30;;;3.60;99.90;;;;;;5127469;27;20257;-57
2022/01/17 09:43:13;;;;;;;5.23;3.37;;;3.60;99.90;;;;;;5125868;27;20192;-58
2022/01/17 09:45:57;;;;;;;3.33;2.67;;;3.60;99.90;;;;;;5129024;27;20212;-58
2022/01/17 09:48:47;;;;;;;3.40;2.30;;;3.60;99.90;;;;;;5126489;27;20192;-56
2022/01/17 09:51:41;;;;;;;4.17;2.37;;;3.60;99.90;;;;;;5125759;27;20213;-59
2022/01/17 09:54:30;;;;;;;5.40;2.50;;;3.60;99.90;;;;;;5128334;27;20245;-58
2022/01/17 09:57:16;;;;;;;4.27;2.70;;;3.60;99.90;;;;;;5125650;27;20231;-58
2022/01/17 10:00:01;;;;;;;3.57;2.43;;;3.70;99.90;;;;;;5126207;27;20271;-59
2022/01/17 10:02:45;;;;;;;4.73;2.37;;;3.70;99.90;;;;;;5128422;27;20196;-62
2022/01/17 10:05:30;;;;;;;5.03;3.30;;;3.70;99.90;;;;;;5125371;27;20240;-61
2022/01/17 10:08:17;;;;;;;3.07;2.60;;;3.70;99.90;;;;;;5127028;27;20280;-58
2022/01/17 10:11:02;;;;;;;3.63;3.00;;;3.70;99.90;;;;;;5127454;27;20195;-59
2022/01/17 10:13:47;;;;;;;3.70;2.60;;;3.80;99.90;;;;;;5124084;27;20198;-58
2022/01/17 10:16:32;;;;;;;2.17;1.80;;;3.70;99.90;;;;;;5127638;27;20225;-58
2022/01/17 10:19:21;;;;;;;2.97;1.73;;;3.80;99.90;;;;;;5126595;27;20252;-58
2022/01/17 10:22:12;;;;;;;4.20;3.17;;;3.80;99.90;;;;;;5124795;27;20199;-59
2022/01/17 10:25:41;;;;;;;2.50;2.20;;;3.80;99.90;;;;;;5127643;27;20218;-59
2022/01/17 10:28:47;;;;;;;6.43;2.87;;;3.80;99.90;;;;;;5128204;27;20274;-61
2022/01/17 10:37:27;;;;;;;3.70;2.30;;;4.00;99.90;;;;;;5129718;27;20219;-57
2022/01/17 10:40:15;;;;;;;2.13;1.80;;;4.00;99.90;;;;;;5125901;27;20269;-62
2022/01/17 10:43:01;;;;;;;1.30;1.23;;;4.00;99.90;;;;;;5126673;27;20195;-54
2022/01/17 10:45:46;;;;;;;2.00;1.73;;;4.00;99.90;;;;;;5127093;27;20214;-62
2022/01/17 10:48:36;;;;;;;1.43;1.43;;;4.00;99.90;;;;;;5124415;27;20195;-59
2022/01/17 10:51:28;;;;;;;3.13;2.37;;;4.00;99.90;;;;;;5127030;27;20200;-56
2022/01/17 10:54:17;;;;;;;4.20;2.40;;;4.00;99.90;;;;;;5126483;28;20241;-60
2022/01/17 10:57:04;;;;;;;2.30;2.03;;;4.00;99.90;;;;;;5124408;28;20239;-59
2022/01/17 10:59:51;;;;;;;3.50;1.73;;;4.00;99.90;;;;;;5127563;28;20620;-58
2022/01/17 11:02:37;;;;;;;2.43;2.27;;;4.00;99.90;;;;;;5126497;28;20208;-61
2022/01/17 11:05:22;;;;;;;2.43;1.60;;;4.00;99.90;;;;;;5127491;27;20245;-54
2022/01/17 11:08:08;;;;;;;2.23;2.03;;;4.00;99.90;;;;;;5131791;27;20191;-59
2022/01/17 11:10:55;;;;;;;3.30;2.37;;;4.00;99.90;;;;;;5129220;27;20199;-61
2022/01/17 11:13:48;;;;;;;1.40;1.40;;;4.00;99.90;;;;;;5129646;27;20222;-61
2022/01/17 11:16:36;;;;;;;3.50;2.20;;;4.00;99.90;;;;;;5130604;27;20300;-59
2022/01/17 11:22:25;;;;;;;3.90;2.27;;;4.00;99.90;;;;;;5139969;27;20206;-61
2022/01/17 11:25:13;;;;;;;3.33;2.50;;;4.00;99.90;;;;;;5136193;27;20211;-55
2022/01/17 11:27:59;;;;;;;2.37;2.00;;;3.90;99.90;;;;;;5133916;27;20257;-57
2022/01/17 11:30:44;;;;;;;2.20;2.00;;;4.00;99.90;;;;;;5135973;27;20187;-54
2022/01/17 11:33:29;;;;;;;6.73;3.33;;;4.00;99.90;;;;;;5133581;27;20216;-62
2022/01/17 11:36:15;;;;;;;1.27;1.13;;;4.00;99.90;;;;;;5153148;27;20238;-62
2022/01/17 11:39:00;;;;;;;2.50;2.23;;;4.00;99.90;;;;;;5138429;27;20184;-57
2022/01/17 11:41:49;;;;;;;1.70;1.43;;;4.00;99.90;;;;;;5136189;27;20192;-61
2022/01/17 11:44:35;;;;;;;2.03;1.57;;;4.00;99.90;;;;;;5133201;27;20199;-59
2022/01/17 11:47:52;;;;;;;1.30;1.27;;;4.00;99.90;;;;;;5138601;27;20191;-59
2022/01/17 11:50:43;;;;;;;2.77;1.20;;;4.10;99.90;;;;;;5136319;27;20241;-62
2022/01/17 11:53:27;;;;;;;2.83;1.00;;;4.10;99.90;;;;;;5136744;27;20220;-58
2022/01/17 11:56:35;;;;;;;2.13;1.70;;;4.10;99.90;;;;;;5137478;27;20219;-55
2022/01/17 11:59:43;;;;;;;2.23;2.03;;;4.20;99.90;;;;;;5132953;27;20199;-59
2022/01/17 12:02:36;;;;;;;2.43;1.50;;;4.10;99.90;;;;;;5125770;27;20268;-61
2022/01/17 12:05:24;;;;;;;1.10;1.00;;;4.10;99.90;;;;;;5132106;27;20196;-60
2022/01/17 12:08:10;;;;;;;2.53;1.90;;;4.10;99.90;;;;;;5127128;27;20241;-58
2022/01/17 12:10:58;;;;;;;2.53;1.03;;;4.10;99.90;;;;;;5125390;27;20218;-60
2022/01/17 12:13:44;;;;;;;0.80;0.80;;;4.10;99.90;;;;;;5124674;27;20184;-58
2022/01/17 12:16:36;;;;;;;3.00;2.23;;;4.20;99.90;;;;;;5121717;27;20329;-59
2022/01/17 12:19:20;;;;;;;2.43;1.97;;;4.20;99.90;;;;;;5124389;27;20214;-62
2022/01/17 12:22:05;;;;;;;2.70;1.60;;;4.30;99.90;;;;;;5122312;27;20231;-60
2022/01/17 12:24:50;;;;;;;2.83;2.07;;;4.30;99.90;;;;;;5125365;27;20183;-61
2022/01/17 12:27:34;;;;;;;1.07;1.07;;;4.30;99.90;;;;;;5124820;27;20187;-58
2022/01/17 12:30:20;;;;;;;1.90;1.77;;;4.30;99.90;;;;;;5127624;27;20191;-55
2022/01/17 12:33:09;;;;;;;3.97;2.30;;;4.30;99.90;;;;;;5120915;27;20256;-61
2022/01/17 12:35:59;;;;;;;2.40;1.67;;;4.30;99.90;;;;;;5126348;27;20223;-58
2022/01/17 12:38:45;;;;;;;1.53;1.17;;;4.30;99.90;;;;;;5117923;27;20264;-57
2022/01/17 12:41:35;;;;;;;2.57;1.50;;;4.30;99.90;;;;;;5132027;27;20188;-62
2022/01/17 12:44:31;;;;;;;1.93;1.83;;;4.30;99.90;;;;;;5133708;27;20188;-60
2022/01/17 12:47:15;;;;;;;1.70;1.47;;;4.30;99.90;;;;;;5138966;27;20190;-62
2022/01/17 12:50:04;;;;;;;1.77;1.67;;;4.30;99.90;;;;;;5132299;27;20233;-62
2022/01/17 12:52:52;;;;;;;3.70;1.53;;;4.30;99.90;;;;;;5136709;27;20187;-60
2022/01/17 12:55:44;;;;;;;4.10;2.20;;;4.40;99.90;;;;;;5133318;27;20184;-54
2022/01/17 12:58:34;;;;;;;2.40;2.17;;;4.40;99.90;;;;;;5137368;27;20223;-60
2022/01/17 13:01:19;;;;;;;2.67;1.73;;;4.50;99.90;;;;;;5133991;27;20232;-61
2022/01/17 13:04:06;;;;;;;2.00;1.23;;;4.60;99.90;;;;;;5128922;27;20205;-61
2022/01/17 13:06:52;;;;;;;4.70;2.27;;;4.60;99.90;;;;;;5132660;27;20205;-60
2022/01/17 13:09:40;;;;;;;1.87;1.80;;;4.60;99.90;;;;;;5133061;27;20207;-60
2022/01/17 13:12:24;;;;;;;2.43;1.97;;;4.70;99.90;;;;;;5131923;27;20279;-64
2022/01/17 13:15:10;;;;;;;1.90;1.67;;;4.80;99.90;;;;;;5135303;27;20274;-58
2022/01/17 13:17:56;;;;;;;3.07;1.97;;;4.90;99.90;;;;;;5138453;27;20226;-59
2022/01/17 13:20:42;;;;;;;1.97;1.50;;;4.70;99.90;;;;;;5128389;27;20247;-59
2022/01/17 13:23:47;;;;;;;0.83;0.83;;;4.80;99.90;;;;;;5128674;27;20199;-62
2022/01/17 13:26:40;;;;;;;1.57;1.27;;;4.90;99.90;;;;;;5127522;27;20289;-60
2022/01/17 13:29:26;;;;;;;1.20;1.03;;;5.10;99.90;;;;;;5123072;27;20223;-62
2022/01/17 13:32:12;;;;;;;1.83;1.60;;;5.20;99.90;;;;;;5113189;27;20324;-62
2022/01/17 13:35:12;;;;;;;2.33;2.00;;;5.20;99.90;;;;;;5112035;27;20231;-52
2022/01/17 13:38:05;;;;;;;2.00;1.30;;;5.10;99.90;;;;;;5133689;27;20231;-64
2022/01/17 13:40:55;;;;;;;2.10;1.50;;;5.10;99.90;;;;;;5117402;27;20214;-52
2022/01/17 13:43:51;;;;;;;1.90;1.67;;;5.00;99.90;;;;;;5111503;27;20216;-64
2022/01/17 13:46:38;;;;;;;2.40;1.10;;;4.90;99.90;;;;;;5127296;27;20196;-61
2022/01/17 13:49:23;;;;;;;1.20;1.20;;;4.80;99.90;;;;;;5119937;27;20198;-60
2022/01/17 13:52:09;;;;;;;1.50;1.40;;;4.70;99.90;;;;;;5123949;27;20198;-61
2022/01/17 13:54:54;;;;;;;2.60;1.60;;;4.70;99.90;;;;;;5116500;27;20312;-64
2022/01/17 13:57:41;;;;;;;2.30;1.50;;;4.60;99.90;;;;;;5116789;27;20227;-58
2022/01/17 14:00:32;;;;;;;2.37;1.90;;;4.60;99.90;;;;;;5122242;27;20191;-62
2022/01/17 14:03:21;;;;;;;3.07;2.17;;;4.60;99.90;;;;;;5108043;27;20200;-56
2022/01/17 14:06:08;;;;;;;1.33;1.23;;;4.60;99.90;;;;;;5126158;27;20257;-49
2022/01/17 14:08:58;;;;;;;1.60;1.40;;;4.60;99.90;;;;;;5129105;27;20199;-61
2022/01/17 14:11:45;;;;;;;1.03;0.93;;;4.70;99.90;;;;;;5122680;27;20208;-65
2022/01/17 14:14:29;;;;;;;2.07;1.53;;;4.60;99.90;;;;;;5147615;27;20287;-56
2022/01/17 14:17:24;;;;;;;1.63;1.53;;;4.60;99.90;;;;;;5143810;27;20273;-62
2022/01/17 14:20:18;;;;;;;1.30;1.20;;;4.60;99.90;;;;;;5128625;27;20240;-64
2022/01/17 14:23:02;;;;;;;1.40;1.30;;;4.60;99.90;;;;;;5122368;27;20200;-53
2022/01/17 14:25:47;;;;;;;1.47;1.40;;;4.50;99.90;;;;;;5117900;27;20190;-62
2022/01/17 14:28:34;;;;;;;1.37;1.37;;;4.50;99.90;;;;;;5127284;27;20248;-62
2022/01/17 14:31:19;;;;;;;1.20;1.20;;;4.40;99.90;;;;;;5111893;27;20225;-49
2022/01/17 14:34:11;;;;;;;1.13;0.80;;;4.40;99.90;;;;;;5127213;27;20208;-60
2022/01/17 14:37:09;;;;;;;0.70;0.70;;;4.30;99.90;;;;;;5118585;27;20238;-56
2022/01/17 14:39:58;;;;;;;1.80;1.70;;;4.40;99.90;;;;;;5127036;27;20198;-65
2022/01/17 14:42:47;;;;;;;2.20;1.50;;;4.30;99.90;;;;;;5110664;27;20268;-48
2022/01/17 14:45:32;;;;;;;1.73;1.30;;;4.20;99.90;;;;;;5123040;27;20269;-56
2022/01/17 14:48:17;;;;;;;4.07;2.00;;;4.20;99.90;;;;;;5110767;27;20207;-50
2022/01/17 14:51:22;;;;;;;1.27;1.13;;;4.10;99.90;;;;;;5118643;27;20225;-52
2022/01/17 14:54:13;;;;;;;1.10;1.10;;;4.10;99.90;;;;;;5120174;27;20217;-58
2022/01/17 15:00:21;;;;;;;0.80;0.80;;;4.10;99.90;;;;;;5128736;27;20199;-64